sensor_id;sensor_type;location;lat;lon;timestamp;pressure;altitude;pressure_sealevel;temperature
20730;BMP280;10526;50.850;12.928;2022-12-11T00:03:19;97144.31;;;-1.75
20730;BMP280;10526;50.850;12.928;2022-12-11T00:07:41;97140.72;;;-1.82
20730;BMP280;10526;50.850;12.928;2022-12-11T00:12:04;97134.28;;;-1.97
20730;BMP280;10526;50.850;12.928;2022-12-11T00:16:27;97141.78;;;-1.96
20730;BMP280;10526;50.850;12.928;2022-12-11T00:20:49;97139.81;;;-1.99
20730;BMP280;10526;50.850;12.928;2022-12-11T00:25:11;97140.13;;;-2.00
20730;BMP280;10526;50.850;12.928;2022-12-11T00:29:34;97143.84;;;-2.01
20730;BMP280;10526;50.850;12.928;2022-12-11T00:33:56;97140.34;;;-2.05
20730;BMP280;10526;50.850;12.928;2022-12-11T00:38:20;97132.66;;;-2.02
20730;BMP280;10526;50.850;12.928;2022-12-11T00:42:42;97143.84;;;-2.01
20730;BMP280;10526;50.850;12.928;2022-12-11T00:47:04;97137.53;;;-2.12
20730;BMP280;10526;50.850;12.928;2022-12-11T00:51:26;97135.13;;;-2.17
20730;BMP280;10526;50.850;12.928;2022-12-11T00:55:49;97143.38;;;-2.15
20730;BMP280;10526;50.850;12.928;2022-12-11T01:00:12;97143.94;;;-2.10
20730;BMP280;10526;50.850;12.928;2022-12-11T01:04:37;97143.72;;;-2.05
20730;BMP280;10526;50.850;12.928;2022-12-11T01:08:59;97153.63;;;-1.98
20730;BMP280;10526;50.850;12.928;2022-12-11T01:13:41;97150.69;;;-1.97
20730;BMP280;10526;50.850;12.928;2022-12-11T01:18:04;97156.34;;;-1.95
20730;BMP280;10526;50.850;12.928;2022-12-11T01:22:25;97155.13;;;-1.97
20730;BMP280;10526;50.850;12.928;2022-12-11T01:26:47;97154.59;;;-2.03
20730;BMP280;10526;50.850;12.928;2022-12-11T01:31:19;97161.00;;;-2.00
20730;BMP280;10526;50.850;12.928;2022-12-11T01:35:41;97165.56;;;-1.97
20730;BMP280;10526;50.850;12.928;2022-12-11T01:40:05;97169.72;;;-1.96
20730;BMP280;10526;50.850;12.928;2022-12-11T01:48:52;97175.56;;;-2.11
20730;BMP280;10526;50.850;12.928;2022-12-11T01:53:24;97171.88;;;-2.23
20730;BMP280;10526;50.850;12.928;2022-12-11T01:57:49;97164.03;;;-2.23
20730;BMP280;10526;50.850;12.928;2022-12-11T02:02:18;97164.16;;;-2.19
20730;BMP280;10526;50.850;12.928;2022-12-11T02:06:48;97173.16;;;-2.16
20730;BMP280;10526;50.850;12.928;2022-12-11T02:11:19;97167.63;;;-2.15
20730;BMP280;10526;50.850;12.928;2022-12-11T02:15:48;97163.59;;;-2.12
20730;BMP280;10526;50.850;12.928;2022-12-11T02:20:22;97162.53;;;-2.11
20730;BMP280;10526;50.850;12.928;2022-12-11T02:25:29;97160.69;;;-2.11
20730;BMP280;10526;50.850;12.928;2022-12-11T02:30:10;97166.22;;;-2.12
20730;BMP280;10526;50.850;12.928;2022-12-11T02:39:26;97150.34;;;-2.20
20730;BMP280;10526;50.850;12.928;2022-12-11T02:43:50;97153.72;;;-2.19
20730;BMP280;10526;50.850;12.928;2022-12-11T02:48:13;97150.66;;;-2.21
20730;BMP280;10526;50.850;12.928;2022-12-11T02:52:37;97155.00;;;-2.25
20730;BMP280;10526;50.850;12.928;2022-12-11T02:57:06;97150.78;;;-2.30
20730;BMP280;10526;50.850;12.928;2022-12-11T03:01:29;97148.44;;;-2.31
20730;BMP280;10526;50.850;12.928;2022-12-11T03:05:51;97150.94;;;-2.35
20730;BMP280;10526;50.850;12.928;2022-12-11T03:10:16;97150.72;;;-2.42
20730;BMP280;10526;50.850;12.928;2022-12-11T03:14:40;97152.13;;;-2.45
20730;BMP280;10526;50.850;12.928;2022-12-11T03:19:22;97148.00;;;-2.46
20730;BMP280;10526;50.850;12.928;2022-12-11T03:24:31;97161.09;;;-2.54
20730;BMP280;10526;50.850;12.928;2022-12-11T03:29:03;97150.00;;;-2.63
20730;BMP280;10526;50.850;12.928;2022-12-11T03:33:32;97149.09;;;-2.68
20730;BMP280;10526;50.850;12.928;2022-12-11T03:37:58;97149.72;;;-2.71
20730;BMP280;10526;50.850;12.928;2022-12-11T03:42:22;97149.25;;;-2.85
20730;BMP280;10526;50.850;12.928;2022-12-11T03:46:45;97148.81;;;-2.87
20730;BMP280;10526;50.850;12.928;2022-12-11T03:51:08;97153.06;;;-2.82
20730;BMP280;10526;50.850;12.928;2022-12-11T03:55:32;97151.34;;;-2.78
20730;BMP280;10526;50.850;12.928;2022-12-11T03:59:58;97150.59;;;-2.79
20730;BMP280;10526;50.850;12.928;2022-12-11T04:04:20;97156.75;;;-2.83
20730;BMP280;10526;50.850;12.928;2022-12-11T04:08:41;97157.19;;;-2.81
20730;BMP280;10526;50.850;12.928;2022-12-11T04:13:03;97167.47;;;-2.85
20730;BMP280;10526;50.850;12.928;2022-12-11T04:17:25;97159.91;;;-2.78
20730;BMP280;10526;50.850;12.928;2022-12-11T04:22:08;97171.75;;;-2.80
20730;BMP280;10526;50.850;12.928;2022-12-11T04:26:48;97168.94;;;-2.75
20730;BMP280;10526;50.850;12.928;2022-12-11T04:31:17;97160.63;;;-2.69
20730;BMP280;10526;50.850;12.928;2022-12-11T04:35:39;97157.81;;;-2.63
20730;BMP280;10526;50.850;12.928;2022-12-11T04:40:04;97157.19;;;-2.60
20730;BMP280;10526;50.850;12.928;2022-12-11T04:44:26;97151.22;;;-2.61
20730;BMP280;10526;50.850;12.928;2022-12-11T04:48:49;97149.03;;;-2.59
20730;BMP280;10526;50.850;12.928;2022-12-11T04:53:18;97152.78;;;-2.69
20730;BMP280;10526;50.850;12.928;2022-12-11T04:57:40;97153.44;;;-2.72
20730;BMP280;10526;50.850;12.928;2022-12-11T05:02:03;97151.25;;;-2.70
20730;BMP280;10526;50.850;12.928;2022-12-11T05:06:24;97156.34;;;-2.73
20730;BMP280;10526;50.850;12.928;2022-12-11T05:10:58;97144.91;;;-2.81
20730;BMP280;10526;50.850;12.928;2022-12-11T05:15:22;97140.13;;;-2.91
20730;BMP280;10526;50.850;12.928;2022-12-11T05:19:48;97133.41;;;-2.92
20730;BMP280;10526;50.850;12.928;2022-12-11T05:24:10;97134.16;;;-2.92
20730;BMP280;10526;50.850;12.928;2022-12-11T05:28:35;97128.19;;;-2.92
20730;BMP280;10526;50.850;12.928;2022-12-11T05:32:57;97122.97;;;-2.92
20730;BMP280;10526;50.850;12.928;2022-12-11T05:37:19;97116.63;;;-3.03
20730;BMP280;10526;50.850;12.928;2022-12-11T05:41:41;97117.25;;;-3.06
20730;BMP280;10526;50.850;12.928;2022-12-11T05:46:16;97115.06;;;-3.04
20730;BMP280;10526;50.850;12.928;2022-12-11T05:50:38;97126.50;;;-2.97
20730;BMP280;10526;50.850;12.928;2022-12-11T05:55:01;97127.72;;;-2.94
20730;BMP280;10526;50.850;12.928;2022-12-11T05:59:23;97128.97;;;-3.00
20730;BMP280;10526;50.850;12.928;2022-12-11T06:03:45;97127.41;;;-3.14
20730;BMP280;10526;50.850;12.928;2022-12-11T06:08:07;97132.50;;;-3.17
20730;BMP280;10526;50.850;12.928;2022-12-11T06:12:29;97135.53;;;-3.15
20730;BMP280;10526;50.850;12.928;2022-12-11T06:16:51;97130.50;;;-3.20
20730;BMP280;10526;50.850;12.928;2022-12-11T06:21:23;97132.91;;;-3.36
20730;BMP280;10526;50.850;12.928;2022-12-11T06:25:46;97137.59;;;-3.50
20730;BMP280;10526;50.850;12.928;2022-12-11T06:30:08;97136.38;;;-3.53
20730;BMP280;10526;50.850;12.928;2022-12-11T06:34:30;97137.13;;;-3.52
20730;BMP280;10526;50.850;12.928;2022-12-11T06:38:54;97138.94;;;-3.44
20730;BMP280;10526;50.850;12.928;2022-12-11T06:43:16;97133.59;;;-3.48
20730;BMP280;10526;50.850;12.928;2022-12-11T06:47:38;97144.59;;;-3.42
20730;BMP280;10526;50.850;12.928;2022-12-11T06:52:00;97154.34;;;-3.39
20730;BMP280;10526;50.850;12.928;2022-12-11T06:56:23;97144.41;;;-3.37
20730;BMP280;10526;50.850;12.928;2022-12-11T07:00:45;97150.22;;;-3.40
20730;BMP280;10526;50.850;12.928;2022-12-11T07:05:07;97148.84;;;-3.38
20730;BMP280;10526;50.850;12.928;2022-12-11T07:09:30;97147.00;;;-3.37
20730;BMP280;10526;50.850;12.928;2022-12-11T07:13:52;97163.16;;;-3.52
20730;BMP280;10526;50.850;12.928;2022-12-11T07:18:13;97153.69;;;-3.57
20730;BMP280;10526;50.850;12.928;2022-12-11T07:22:37;97156.69;;;-3.46
20730;BMP280;10526;50.850;12.928;2022-12-11T07:27:06;97159.75;;;-3.44
20730;BMP280;10526;50.850;12.928;2022-12-11T07:31:29;97164.75;;;-3.39
20730;BMP280;10526;50.850;12.928;2022-12-11T07:35:51;97165.72;;;-3.44
20730;BMP280;10526;50.850;12.928;2022-12-11T07:40:14;97171.88;;;-3.48
20730;BMP280;10526;50.850;12.928;2022-12-11T07:44:36;97177.22;;;-3.45
20730;BMP280;10526;50.850;12.928;2022-12-11T07:48:58;97180.47;;;-3.27
20730;BMP280;10526;50.850;12.928;2022-12-11T07:53:21;97178.22;;;-3.07
20730;BMP280;10526;50.850;12.928;2022-12-11T07:57:43;97177.13;;;-2.85
20730;BMP280;10526;50.850;12.928;2022-12-11T08:02:05;97175.91;;;-2.67
20730;BMP280;10526;50.850;12.928;2022-12-11T08:06:31;97174.59;;;-2.52
20730;BMP280;10526;50.850;12.928;2022-12-11T08:10:53;97176.78;;;-2.42
20730;BMP280;10526;50.850;12.928;2022-12-11T08:15:15;97165.06;;;-2.36
20730;BMP280;10526;50.850;12.928;2022-12-11T08:19:37;97159.16;;;-2.57
20730;BMP280;10526;50.850;12.928;2022-12-11T08:23:59;97157.75;;;-2.76
20730;BMP280;10526;50.850;12.928;2022-12-11T08:28:21;97163.50;;;-2.61
20730;BMP280;10526;50.850;12.928;2022-12-11T08:32:43;97160.94;;;-2.37
20730;BMP280;10526;50.850;12.928;2022-12-11T08:37:05;97166.84;;;-2.15
20730;BMP280;10526;50.850;12.928;2022-12-11T08:41:28;97161.81;;;-1.87
20730;BMP280;10526;50.850;12.928;2022-12-11T08:45:51;97153.75;;;-1.70
20730;BMP280;10526;50.850;12.928;2022-12-11T08:50:13;97157.88;;;-1.57
20730;BMP280;10526;50.850;12.928;2022-12-11T08:54:38;97162.09;;;-1.40
20730;BMP280;10526;50.850;12.928;2022-12-11T08:59:00;97161.09;;;-1.23
20730;BMP280;10526;50.850;12.928;2022-12-11T09:03:23;97162.66;;;-0.94
20730;BMP280;10526;50.850;12.928;2022-12-11T09:07:45;97168.66;;;-0.65
20730;BMP280;10526;50.850;12.928;2022-12-11T09:12:07;97180.59;;;-0.52
20730;BMP280;10526;50.850;12.928;2022-12-11T09:16:29;97172.34;;;-0.66
20730;BMP280;10526;50.850;12.928;2022-12-11T09:21:07;97172.84;;;-0.49
20730;BMP280;10526;50.850;12.928;2022-12-11T09:25:29;97173.50;;;-0.36
20730;BMP280;10526;50.850;12.928;2022-12-11T09:29:51;97160.66;;;-0.57
20730;BMP280;10526;50.850;12.928;2022-12-11T09:34:13;97159.22;;;-0.54
20730;BMP280;10526;50.850;12.928;2022-12-11T09:38:35;97163.94;;;-0.60
20730;BMP280;10526;50.850;12.928;2022-12-11T09:43:05;97157.03;;;-0.68
20730;BMP280;10526;50.850;12.928;2022-12-11T09:47:38;97156.78;;;-0.91
20730;BMP280;10526;50.850;12.928;2022-12-11T09:52:19;97163.59;;;-1.14
20730;BMP280;10526;50.850;12.928;2022-12-11T10:07:32;97147.06;;;-0.62
20730;BMP280;10526;50.850;12.928;2022-12-11T10:12:15;97147.34;;;0.08
20730;BMP280;10526;50.850;12.928;2022-12-11T10:16:53;97146.66;;;1.20
20730;BMP280;10526;50.850;12.928;2022-12-11T10:21:17;97152.75;;;3.14
20730;BMP280;10526;50.850;12.928;2022-12-11T10:25:49;97152.00;;;4.78
20730;BMP280;10526;50.850;12.928;2022-12-11T10:34:41;97143.66;;;4.55
20730;BMP280;10526;50.850;12.928;2022-12-11T10:39:18;97142.00;;;3.70
20730;BMP280;10526;50.850;12.928;2022-12-11T10:43:47;97133.25;;;2.81
20730;BMP280;10526;50.850;12.928;2022-12-11T10:48:10;97127.03;;;2.06
20730;BMP280;10526;50.850;12.928;2022-12-11T10:52:43;97131.09;;;1.54
20730;BMP280;10526;50.850;12.928;2022-12-11T10:57:07;97126.63;;;1.32
20730;BMP280;10526;50.850;12.928;2022-12-11T11:01:31;97117.78;;;1.20
20730;BMP280;10526;50.850;12.928;2022-12-11T11:06:15;97119.78;;;0.88
20730;BMP280;10526;50.850;12.928;2022-12-11T11:10:47;97117.00;;;0.07
20730;BMP280;10526;50.850;12.928;2022-12-11T11:15:27;97106.47;;;-0.28
20730;BMP280;10526;50.850;12.928;2022-12-11T11:19:49;97095.91;;;-0.47
20730;BMP280;10526;50.850;12.928;2022-12-11T11:24:43;97087.03;;;-0.43
20730;BMP280;10526;50.850;12.928;2022-12-11T11:29:05;97085.28;;;-0.39
20730;BMP280;10526;50.850;12.928;2022-12-11T11:33:28;97084.84;;;-0.41
20730;BMP280;10526;50.850;12.928;2022-12-11T11:38:17;97088.03;;;-0.63
20730;BMP280;10526;50.850;12.928;2022-12-11T11:43:00;97080.47;;;-0.68
20730;BMP280;10526;50.850;12.928;2022-12-11T11:47:35;97085.06;;;-0.78
20730;BMP280;10526;50.850;12.928;2022-12-11T11:56:50;97055.34;;;-0.57
20730;BMP280;10526;50.850;12.928;2022-12-11T12:01:16;97061.94;;;-0.32
20730;BMP280;10526;50.850;12.928;2022-12-11T12:05:56;97059.97;;;-0.03
20730;BMP280;10526;50.850;12.928;2022-12-11T12:10:35;97052.72;;;0.26
20730;BMP280;10526;50.850;12.928;2022-12-11T12:30:01;97039.16;;;0.20
20730;BMP280;10526;50.850;12.928;2022-12-11T12:39:53;97042.06;;;-0.01
20730;BMP280;10526;50.850;12.928;2022-12-11T12:44:21;97036.09;;;-0.17
20730;BMP280;10526;50.850;12.928;2022-12-11T12:48:44;97034.91;;;-0.67
20730;BMP280;10526;50.850;12.928;2022-12-11T12:53:09;97035.22;;;-0.85
20730;BMP280;10526;50.850;12.928;2022-12-11T12:57:36;97022.94;;;-0.84
20730;BMP280;10526;50.850;12.928;2022-12-11T13:02:01;97022.25;;;-0.81
20730;BMP280;10526;50.850;12.928;2022-12-11T13:06:40;97019.72;;;-0.78
20730;BMP280;10526;50.850;12.928;2022-12-11T13:11:07;97010.94;;;-1.01
20730;BMP280;10526;50.850;12.928;2022-12-11T13:15:38;97016.69;;;-1.11
20730;BMP280;10526;50.850;12.928;2022-12-11T13:20:32;97024.31;;;-1.18
20730;BMP280;10526;50.850;12.928;2022-12-11T13:24:58;97027.41;;;-1.29
20730;BMP280;10526;50.850;12.928;2022-12-11T13:29:37;97027.69;;;-1.46
20730;BMP280;10526;50.850;12.928;2022-12-11T13:34:14;97039.69;;;-1.70
20730;BMP280;10526;50.850;12.928;2022-12-11T13:38:42;97031.59;;;-1.80
20730;BMP280;10526;50.850;12.928;2022-12-11T13:43:19;97036.59;;;-2.00
20730;BMP280;10526;50.850;12.928;2022-12-11T13:47:42;97024.22;;;-2.15
20730;BMP280;10526;50.850;12.928;2022-12-11T13:52:05;97030.22;;;-2.27
20730;BMP280;10526;50.850;12.928;2022-12-11T13:56:28;97025.69;;;-2.38
20730;BMP280;10526;50.850;12.928;2022-12-11T14:05:34;97033.22;;;-2.61
20730;BMP280;10526;50.850;12.928;2022-12-11T14:10:07;97029.63;;;-2.57
20730;BMP280;10526;50.850;12.928;2022-12-11T14:14:41;97036.47;;;-2.52
20730;BMP280;10526;50.850;12.928;2022-12-11T14:19:05;97033.00;;;-2.56
20730;BMP280;10526;50.850;12.928;2022-12-11T14:23:34;97039.69;;;-2.68
20730;BMP280;10526;50.850;12.928;2022-12-11T14:27:56;97042.50;;;-2.73
20730;BMP280;10526;50.850;12.928;2022-12-11T14:32:34;97045.94;;;-2.81
20730;BMP280;10526;50.850;12.928;2022-12-11T14:36:58;97050.16;;;-2.88
20730;BMP280;10526;50.850;12.928;2022-12-11T14:41:37;97051.34;;;-2.86
20730;BMP280;10526;50.850;12.928;2022-12-11T14:46:53;97044.63;;;-2.87
20730;BMP280;10526;50.850;12.928;2022-12-11T14:51:18;97050.97;;;-2.97
20730;BMP280;10526;50.850;12.928;2022-12-11T14:55:40;97042.81;;;-3.07
20730;BMP280;10526;50.850;12.928;2022-12-11T15:05:16;97044.66;;;-3.29
20730;BMP280;10526;50.850;12.928;2022-12-11T15:09:38;97052.47;;;-3.29
20730;BMP280;10526;50.850;12.928;2022-12-11T15:14:04;97054.75;;;-3.27
20730;BMP280;10526;50.850;12.928;2022-12-11T15:18:33;97052.03;;;-3.31
20730;BMP280;10526;50.850;12.928;2022-12-11T15:22:59;97057.03;;;-3.26
20730;BMP280;10526;50.850;12.928;2022-12-11T15:27:38;97054.25;;;-3.21
20730;BMP280;10526;50.850;12.928;2022-12-11T15:32:14;97048.19;;;-3.25
20730;BMP280;10526;50.850;12.928;2022-12-11T15:36:39;97048.63;;;-3.23
20730;BMP280;10526;50.850;12.928;2022-12-11T15:41:02;97056.00;;;-3.25
20730;BMP280;10526;50.850;12.928;2022-12-11T15:45:26;97064.41;;;-3.28
20730;BMP280;10526;50.850;12.928;2022-12-11T15:49:53;97059.06;;;-3.31
20730;BMP280;10526;50.850;12.928;2022-12-11T15:54:16;97064.41;;;-3.28
20730;BMP280;10526;50.850;12.928;2022-12-11T15:58:38;97072.53;;;-3.29
20730;BMP280;10526;50.850;12.928;2022-12-11T16:03:00;97069.94;;;-3.29
20730;BMP280;10526;50.850;12.928;2022-12-11T16:07:24;97072.81;;;-3.22
20730;BMP280;10526;50.850;12.928;2022-12-11T16:11:46;97074.00;;;-3.20
20730;BMP280;10526;50.850;12.928;2022-12-11T16:16:09;97067.28;;;-3.21
20730;BMP280;10526;50.850;12.928;2022-12-11T16:20:33;97066.94;;;-3.19
20730;BMP280;10526;50.850;12.928;2022-12-11T16:24:55;97070.53;;;-3.24
20730;BMP280;10526;50.850;12.928;2022-12-11T16:29:17;97066.13;;;-3.32
20730;BMP280;10526;50.850;12.928;2022-12-11T16:33:39;97063.00;;;-3.25
20730;BMP280;10526;50.850;12.928;2022-12-11T16:38:04;97059.66;;;-3.26
20730;BMP280;10526;50.850;12.928;2022-12-11T16:42:29;97069.47;;;-3.23
20730;BMP280;10526;50.850;12.928;2022-12-11T16:46:52;97057.31;;;-3.19
20730;BMP280;10526;50.850;12.928;2022-12-11T16:51:15;97062.06;;;-3.21
20730;BMP280;10526;50.850;12.928;2022-12-11T16:55:39;97057.19;;;-3.22
20730;BMP280;10526;50.850;12.928;2022-12-11T17:00:02;97051.09;;;-3.26
20730;BMP280;10526;50.850;12.928;2022-12-11T17:04:24;97063.00;;;-3.25
20730;BMP280;10526;50.850;12.928;2022-12-11T17:08:46;97063.00;;;-3.25
20730;BMP280;10526;50.850;12.928;2022-12-11T17:13:08;97062.25;;;-3.26
20730;BMP280;10526;50.850;12.928;2022-12-11T17:17:30;97060.50;;;-3.34
20730;BMP280;10526;50.850;12.928;2022-12-11T17:21:52;97065.69;;;-3.34
20730;BMP280;10526;50.850;12.928;2022-12-11T17:26:16;97071.31;;;-3.32
20730;BMP280;10526;50.850;12.928;2022-12-11T17:30:41;97073.16;;;-3.32
20730;BMP280;10526;50.850;12.928;2022-12-11T17:35:03;97077.38;;;-3.40
20730;BMP280;10526;50.850;12.928;2022-12-11T17:39:25;97074.50;;;-3.47
20730;BMP280;10526;50.850;12.928;2022-12-11T17:43:49;97068.38;;;-3.51
20730;BMP280;10526;50.850;12.928;2022-12-11T17:48:12;97067.97;;;-3.53
20730;BMP280;10526;50.850;12.928;2022-12-11T17:52:34;97071.63;;;-3.54
20730;BMP280;10526;50.850;12.928;2022-12-11T17:57:05;97068.59;;;-3.56
20730;BMP280;10526;50.850;12.928;2022-12-11T18:01:27;97077.75;;;-3.50
20730;BMP280;10526;50.850;12.928;2022-12-11T18:05:53;97079.41;;;-3.46
20730;BMP280;10526;50.850;12.928;2022-12-11T18:10:15;97078.00;;;-3.43
20730;BMP280;10526;50.850;12.928;2022-12-11T18:14:37;97076.28;;;-3.39
20730;BMP280;10526;50.850;12.928;2022-12-11T18:19:04;97071.06;;;-3.39
20730;BMP280;10526;50.850;12.928;2022-12-11T18:23:26;97069.44;;;-3.44
20730;BMP280;10526;50.850;12.928;2022-12-11T18:27:49;97073.53;;;-3.43
20730;BMP280;10526;50.850;12.928;2022-12-11T18:32:11;97077.38;;;-3.40
20730;BMP280;10526;50.850;12.928;2022-12-11T18:36:33;97066.75;;;-3.35
20730;BMP280;10526;50.850;12.928;2022-12-11T18:40:55;97065.25;;;-3.36
20730;BMP280;10526;50.850;12.928;2022-12-11T18:45:17;97065.13;;;-3.40
20730;BMP280;10526;50.850;12.928;2022-12-11T18:49:39;97063.41;;;-3.35
20730;BMP280;10526;50.850;12.928;2022-12-11T18:54:01;97064.59;;;-3.33
20730;BMP280;10526;50.850;12.928;2022-12-11T18:58:23;97063.41;;;-3.35
20730;BMP280;10526;50.850;12.928;2022-12-11T19:02:45;97059.78;;;-3.43
20730;BMP280;10526;50.850;12.928;2022-12-11T19:07:10;97065.31;;;-3.45
20730;BMP280;10526;50.850;12.928;2022-12-11T19:11:33;97064.56;;;-3.45
20730;BMP280;10526;50.850;12.928;2022-12-11T19:15:56;97062.13;;;-3.50
20730;BMP280;10526;50.850;12.928;2022-12-11T19:20:18;97073.28;;;-3.29
20730;BMP280;10526;50.850;12.928;2022-12-11T19:25:00;97070.91;;;-3.34
20730;BMP280;10526;50.850;12.928;2022-12-11T19:29:28;97076.75;;;-3.37
20730;BMP280;10526;50.850;12.928;2022-12-11T19:33:50;97071.41;;;-3.41
20730;BMP280;10526;50.850;12.928;2022-12-11T19:38:12;97073.53;;;-3.43
20730;BMP280;10526;50.850;12.928;2022-12-11T19:42:35;97072.03;;;-3.44
20730;BMP280;10526;50.850;12.928;2022-12-11T19:46:57;97067.16;;;-3.45
20730;BMP280;10526;50.850;12.928;2022-12-11T19:51:23;97066.69;;;-3.47
20730;BMP280;10526;50.850;12.928;2022-12-11T19:55:52;97063.53;;;-3.53
20730;BMP280;10526;50.850;12.928;2022-12-11T20:00:15;97061.22;;;-3.54
20730;BMP280;10526;50.850;12.928;2022-12-11T20:04:37;97058.19;;;-3.56
20730;BMP280;10526;50.850;12.928;2022-12-11T20:09:01;97064.66;;;-3.63
20730;BMP280;10526;50.850;12.928;2022-12-11T20:13:24;97059.00;;;-3.65
20730;BMP280;10526;50.850;12.928;2022-12-11T20:17:46;97051.56;;;-3.75
20730;BMP280;10526;50.850;12.928;2022-12-11T20:22:08;97057.25;;;-3.73
20730;BMP280;10526;50.850;12.928;2022-12-11T20:26:31;97060.06;;;-3.66
20730;BMP280;10526;50.850;12.928;2022-12-11T20:31:06;97064.50;;;-3.66
20730;BMP280;10526;50.850;12.928;2022-12-11T20:35:29;97061.50;;;-3.68
20730;BMP280;10526;50.850;12.928;2022-12-11T20:39:52;97061.63;;;-3.65
20730;BMP280;10526;50.850;12.928;2022-12-11T20:44:14;97063.88;;;-3.63
20730;BMP280;10526;50.850;12.928;2022-12-11T20:48:37;97062.94;;;-3.58
20730;BMP280;10526;50.850;12.928;2022-12-11T20:52:59;97068.59;;;-3.56
20730;BMP280;10526;50.850;12.928;2022-12-11T20:57:21;97073.78;;;-3.56
20730;BMP280;10526;50.850;12.928;2022-12-11T21:01:43;97062.31;;;-3.55
20730;BMP280;10526;50.850;12.928;2022-12-11T21:06:05;97064.03;;;-3.59
20730;BMP280;10526;50.850;12.928;2022-12-11T21:10:27;97065.41;;;-3.62
20730;BMP280;10526;50.850;12.928;2022-12-11T21:14:49;97060.97;;;-3.62
20730;BMP280;10526;50.850;12.928;2022-12-11T21:19:13;97063.56;;;-3.62
20730;BMP280;10526;50.850;12.928;2022-12-11T21:23:37;97055.13;;;-3.58
20730;BMP280;10526;50.850;12.928;2022-12-11T21:28:00;97060.47;;;-3.55
20730;BMP280;10526;50.850;12.928;2022-12-11T21:32:22;97059.28;;;-3.57
20730;BMP280;10526;50.850;12.928;2022-12-11T21:36:46;97061.88;;;-3.57
20730;BMP280;10526;50.850;12.928;2022-12-11T21:41:13;97051.47;;;-3.57
20730;BMP280;10526;50.850;12.928;2022-12-11T21:45:36;97057.09;;;-3.55
20730;BMP280;10526;50.850;12.928;2022-12-11T21:50:18;97056.00;;;-3.54
20730;BMP280;10526;50.850;12.928;2022-12-11T21:54:40;97059.06;;;-3.52
20730;BMP280;10526;50.850;12.928;2022-12-11T21:59:03;97062.31;;;-3.55
20730;BMP280;10526;50.850;12.928;2022-12-11T22:03:25;97065.53;;;-3.58
20730;BMP280;10526;50.850;12.928;2022-12-11T22:07:47;97065.09;;;-3.61
20730;BMP280;10526;50.850;12.928;2022-12-11T22:12:21;97057.59;;;-3.62
20730;BMP280;10526;50.850;12.928;2022-12-11T22:16:44;97054.25;;;-3.63
20730;BMP280;10526;50.850;12.928;2022-12-11T22:21:06;97056.97;;;-3.59
20730;BMP280;10526;50.850;12.928;2022-12-11T22:25:28;97053.75;;;-3.56
20730;BMP280;10526;50.850;12.928;2022-12-11T22:29:50;97055.25;;;-3.55
20730;BMP280;10526;50.850;12.928;2022-12-11T22:34:12;97053.88;;;-3.52
20730;BMP280;10526;50.850;12.928;2022-12-11T22:38:34;97055.53;;;-3.48
20730;BMP280;10526;50.850;12.928;2022-12-11T22:42:57;97057.94;;;-3.43
20730;BMP280;10526;50.850;12.928;2022-12-11T22:47:19;97055.78;;;-3.41
20730;BMP280;10526;50.850;12.928;2022-12-11T22:51:41;97059.47;;;-3.42
20730;BMP280;10526;50.850;12.928;2022-12-11T22:56:05;97056.00;;;-3.54
20730;BMP280;10526;50.850;12.928;2022-12-11T23:00:27;97056.94;;;-3.50
20730;BMP280;10526;50.850;12.928;2022-12-11T23:04:49;97058.47;;;-3.49
20730;BMP280;10526;50.850;12.928;2022-12-11T23:09:11;97055.88;;;-3.58
20730;BMP280;10526;50.850;12.928;2022-12-11T23:13:33;97061.88;;;-3.57
20730;BMP280;10526;50.850;12.928;2022-12-11T23:17:55;97058.19;;;-3.56
20730;BMP280;10526;50.850;12.928;2022-12-11T23:22:19;97061.22;;;-3.54
20730;BMP280;10526;50.850;12.928;2022-12-11T23:26:41;97072.28;;;-3.57
20730;BMP280;10526;50.850;12.928;2022-12-11T23:31:03;97070.31;;;-3.61
20730;BMP280;10526;50.850;12.928;2022-12-11T23:35:26;97066.16;;;-3.62
20730;BMP280;10526;50.850;12.928;2022-12-11T23:39:48;97064.66;;;-3.63
20730;BMP280;10526;50.850;12.928;2022-12-11T23:44:10;97069.09;;;-3.63
20730;BMP280;10526;50.850;12.928;2022-12-11T23:48:32;97065.28;;;-3.66
20730;BMP280;10526;50.850;12.928;2022-12-11T23:52:54;97070.47;;;-3.66
20730;BMP280;10526;50.850;12.928;2022-12-11T23:57:16;97073.88;;;-3.65
